Time;durP1;ratioP1;P1;durP2;ratioP2;P2;SDS_P1;SDS_P2;PMS_P1;PMS_P2;Temp;Humidity;BMP_temperature;BMP_pressure;BME280_temperature;BME280_humidity;BME280_pressure;Samples;Min_cycle;Max_cycle;Signal;HPM_P1;HPM_P2
2023/04/17 00:02:03;;;;;;;;;;;10.90;99.90;;;;;;5072237;28;19913;-61
2023/04/17 00:04:29;;;;;;;;;;;10.90;99.90;;;;;;5073032;28;19943;-61
2023/04/17 00:06:55;;;;;;;;;;;10.90;99.90;;;;;;5074248;28;19920;-61
2023/04/17 00:09:21;;;;;;;;;;;10.90;99.90;;;;;;5069486;28;20280;-61
2023/04/17 00:11:46;;;;;;;;;;;10.90;99.90;;;;;;5072795;28;19914;-62
2023/04/17 00:14:12;;;;;;;;;;;10.90;99.90;;;;;;5068617;28;20386;-61
2023/04/17 00:16:38;;;;;;;;;;;10.90;99.90;;;;;;5074126;28;20355;-61
2023/04/17 00:19:03;;;;;;;;;;;10.80;99.90;;;;;;5074267;28;19913;-60
2023/04/17 00:21:30;;;;;;;;;;;10.70;99.90;;;;;;5070299;28;19990;-60
2023/04/17 00:23:56;;;;;;;;;;;10.70;99.90;;;;;;5071351;28;19935;-60
2023/04/17 00:26:22;;;;;;;;;;;10.70;99.90;;;;;;5065293;28;20275;-60
2023/04/17 00:28:49;;;;;;;;;;;10.70;99.90;;;;;;5075966;28;19972;-60
2023/04/17 00:31:15;;;;;;;;;;;10.70;99.90;;;;;;5071908;28;19920;-60
2023/04/17 00:33:40;;;;;;;;;;;10.80;99.90;;;;;;5071310;28;19917;-60
2023/04/17 00:36:06;;;;;;;;;;;10.80;99.90;;;;;;5073392;28;19982;-60
2023/04/17 00:38:32;;;;;;;;;;;10.80;99.90;;;;;;5072783;28;20007;-60
2023/04/17 00:40:58;;;;;;;;;;;10.80;99.90;;;;;;5068689;28;20402;-60
2023/04/17 00:43:23;;;;;;;;;;;10.80;99.90;;;;;;5071458;28;19921;-60
2023/04/17 00:45:49;;;;;;;;;;;10.70;99.90;;;;;;5066159;28;20360;-60
2023/04/17 00:48:15;;;;;;;;;;;10.70;99.90;;;;;;5067265;28;19912;-60
2023/04/17 00:50:42;;;;;;;;;;;10.60;99.90;;;;;;5069792;28;20011;-60
2023/04/17 00:53:08;;;;;;;;;;;10.60;99.90;;;;;;5064177;28;19965;-60
2023/04/17 00:55:34;;;;;;;;;;;10.60;99.90;;;;;;5075652;28;19921;-60
2023/04/17 00:57:59;;;;;;;;;;;10.60;99.90;;;;;;5072797;28;19912;-59
2023/04/17 01:00:25;;;;;;;;;;;10.60;99.90;;;;;;5072944;28;19978;-60
2023/04/17 01:02:51;;;;;;;;;;;10.60;99.90;;;;;;5073257;28;19919;-60
2023/04/17 01:05:16;;;;;;;;;;;10.60;99.90;;;;;;5070126;28;20368;-60
2023/04/17 01:07:44;;;;;;;;;;;10.60;99.90;;;;;;5072814;28;20005;-60
2023/04/17 01:10:10;;;;;;;;;;;10.60;99.90;;;;;;5074765;28;19974;-60
2023/04/17 01:12:35;;;;;;;;;;;10.50;99.90;;;;;;5072149;28;19912;-60
2023/04/17 01:15:01;;;;;;;;;;;10.60;99.90;;;;;;5077817;28;20014;-60
2023/04/17 01:17:27;;;;;;;;;;;10.70;99.90;;;;;;5070444;28;19913;-60
2023/04/17 01:19:53;;;;;;;;;;;10.70;99.90;;;;;;5068124;28;19917;-61
2023/04/17 01:22:19;;;;;;;;;;;10.70;99.90;;;;;;5066649;28;19913;-60
2023/04/17 01:24:45;;;;;;;;;;;10.80;99.90;;;;;;5076622;28;19954;-60
2023/04/17 01:27:14;;;;;;;;;;;10.80;99.90;;;;;;5069684;28;19969;-60
2023/04/17 01:29:43;;;;;;;;;;;10.80;99.90;;;;;;5060079;28;19920;-60
2023/04/17 01:32:08;;;;;;;;;;;10.80;99.90;;;;;;5074803;28;19912;-60
2023/04/17 01:34:34;;;;;;;;;;;10.70;99.90;;;;;;5076947;28;20394;-60
2023/04/17 01:37:00;;;;;;;;;;;10.70;99.90;;;;;;5073549;28;19924;-60
2023/04/17 01:39:26;;;;;;;;;;;10.70;99.90;;;;;;5068948;28;19920;-60
2023/04/17 01:41:53;;;;;;;;;;;10.80;99.90;;;;;;5055497;28;19913;-59
2023/04/17 01:44:18;;;;;;;;;;;10.80;99.90;;;;;;5065138;28;19965;-60
2023/04/17 01:46:44;;;;;;;;;;;10.80;99.90;;;;;;5067944;28;20000;-60
2023/04/17 01:49:10;;;;;;;;;;;10.80;99.90;;;;;;5066421;28;19919;-60
2023/04/17 01:51:36;;;;;;;;;;;10.70;99.90;;;;;;5069394;28;19954;-60
2023/04/17 01:54:01;;;;;;;;;;;10.70;99.90;;;;;;5066350;28;19952;-60
2023/04/17 01:56:27;;;;;;;;;;;10.70;99.90;;;;;;5079955;28;19923;-59
2023/04/17 01:58:53;;;;;;;;;;;10.70;99.90;;;;;;5069643;28;19913;-61
2023/04/17 02:01:18;;;;;;;;;;;10.60;99.90;;;;;;5063529;28;19967;-60
2023/04/17 02:03:44;;;;;;;;;;;10.70;99.90;;;;;;5083556;28;19966;-60
2023/04/17 02:06:10;;;;;;;;;;;10.70;99.90;;;;;;5071242;28;19912;-60
2023/04/17 02:08:36;;;;;;;;;;;10.70;99.90;;;;;;5080012;28;19966;-60
2023/04/17 02:11:01;;;;;;;;;;;10.70;99.90;;;;;;5072080;28;19913;-61
2023/04/17 02:13:27;;;;;;;;;;;10.60;99.90;;;;;;5071871;28;19973;-59
2023/04/17 02:15:52;;;;;;;;;;;10.60;99.90;;;;;;5066612;28;19974;-61
2023/04/17 02:18:18;;;;;;;;;;;10.60;99.90;;;;;;5080039;28;20367;-60
2023/04/17 02:20:44;;;;;;;;;;;10.50;99.90;;;;;;5078238;28;19919;-60
2023/04/17 02:23:09;;;;;;;;;;;10.50;99.90;;;;;;5079443;28;20006;-60
2023/04/17 02:25:35;;;;;;;;;;;10.50;99.90;;;;;;5070101;28;19916;-60
2023/04/17 02:28:01;;;;;;;;;;;10.50;99.90;;;;;;5071893;28;19916;-60
2023/04/17 02:30:27;;;;;;;;;;;10.50;99.90;;;;;;5080643;28;20288;-60
2023/04/17 02:32:53;;;;;;;;;;;10.60;99.90;;;;;;5080060;28;19916;-60
2023/04/17 02:35:19;;;;;;;;;;;10.50;99.90;;;;;;5068376;28;19920;-60
2023/04/17 02:37:45;;;;;;;;;;;10.50;99.90;;;;;;5075791;28;19912;-61
2023/04/17 02:40:11;;;;;;;;;;;10.50;99.90;;;;;;5070504;28;19916;-60
2023/04/17 02:42:36;;;;;;;;;;;10.50;99.90;;;;;;5074445;28;19919;-60
2023/04/17 02:45:03;;;;;;;;;;;10.50;99.90;;;;;;5066131;28;19917;-60
2023/04/17 02:47:29;;;;;;;;;;;10.50;99.90;;;;;;5080106;28;19956;-60
2023/04/17 02:49:55;;;;;;;;;;;10.50;99.90;;;;;;5076650;28;20398;-60
2023/04/17 02:52:21;;;;;;;;;;;10.40;99.90;;;;;;5070572;28;19919;-60
2023/04/17 02:54:47;;;;;;;;;;;10.40;99.90;;;;;;5076752;28;19920;-60
2023/04/17 02:57:12;;;;;;;;;;;10.40;99.90;;;;;;5068535;28;20371;-60
2023/04/17 02:59:38;;;;;;;;;;;10.50;99.90;;;;;;5073316;28;19916;-60
2023/04/17 03:02:04;;;;;;;;;;;10.50;99.90;;;;;;5073086;28;19912;-60
2023/04/17 03:04:29;;;;;;;;;;;10.50;99.90;;;;;;5073108;28;19912;-60
2023/04/17 03:06:55;;;;;;;;;;;10.60;99.90;;;;;;5076821;28;19920;-59
2023/04/17 03:09:22;;;;;;;;;;;10.50;99.90;;;;;;5081706;28;19912;-61
2023/04/17 03:11:48;;;;;;;;;;;10.50;99.90;;;;;;5078998;28;19918;-60
2023/04/17 03:14:14;;;;;;;;;;;10.50;99.90;;;;;;5072754;28;19916;-60
2023/04/17 03:16:40;;;;;;;;;;;10.50;99.90;;;;;;5073105;28;19916;-61
2023/04/17 03:19:05;;;;;;;;;;;10.50;99.90;;;;;;5071233;28;20345;-60
2023/04/17 03:21:31;;;;;;;;;;;10.50;99.90;;;;;;5072266;28;19913;-61
2023/04/17 03:23:56;;;;;;;;;;;10.50;99.90;;;;;;5070544;28;19982;-58
2023/04/17 03:26:22;;;;;;;;;;;10.50;99.90;;;;;;5066214;28;19916;-60
2023/04/17 03:28:48;;;;;;;;;;;10.50;99.90;;;;;;5074176;28;19935;-60
2023/04/17 03:31:13;;;;;;;;;;;10.50;99.90;;;;;;5071724;28;19916;-60
2023/04/17 03:33:41;;;;;;;;;;;10.50;99.90;;;;;;5075644;28;21330;-60
2023/04/17 03:36:07;;;;;;;;;;;10.60;99.90;;;;;;5063198;28;19921;-60
2023/04/17 03:38:33;;;;;;;;;;;10.50;99.90;;;;;;5071091;28;19969;-60
2023/04/17 03:40:59;;;;;;;;;;;10.50;99.90;;;;;;5077098;28;19948;-60
2023/04/17 03:43:25;;;;;;;;;;;10.60;99.90;;;;;;5083851;22;19959;-64
2023/04/17 03:45:50;;;;;;;;;;;10.60;99.90;;;;;;5073405;28;19958;-63
2023/04/17 03:48:16;;;;;;;;;;;10.60;99.90;;;;;;5072285;28;19951;-64
2023/04/17 03:50:41;;;;;;;;;;;10.70;99.90;;;;;;5071303;28;19919;-64
2023/04/17 03:53:07;;;;;;;;;;;10.70;99.90;;;;;;5063601;28;20451;-64
2023/04/17 03:55:35;;;;;;;;;;;10.80;99.90;;;;;;5072768;28;19920;-64
2023/04/17 03:58:01;;;;;;;;;;;10.80;99.90;;;;;;5070798;28;20325;-64
2023/04/17 04:00:27;;;;;;;;;;;10.80;99.90;;;;;;5070014;28;19912;-64
2023/04/17 04:02:53;;;;;;;;;;;10.90;99.90;;;;;;5075414;28;20003;-64
2023/04/17 04:05:19;;;;;;;;;;;10.80;99.90;;;;;;5067747;28;19964;-64
2023/04/17 04:07:44;;;;;;;;;;;10.90;99.90;;;;;;5084068;28;19912;-65
2023/04/17 04:10:10;;;;;;;;;;;10.90;99.90;;;;;;5068966;28;19958;-64
2023/04/17 04:12:36;;;;;;;;;;;10.90;99.90;;;;;;5069477;28;19913;-64
2023/04/17 04:15:01;;;;;;;;;;;11.00;99.90;;;;;;5073010;28;20388;-64
2023/04/17 04:17:27;;;;;;;;;;;10.90;99.90;;;;;;5074598;28;20057;-64
2023/04/17 04:19:53;;;;;;;;;;;11.00;99.90;;;;;;5081406;28;20007;-63
2023/04/17 04:22:20;;;;;;;;;;;10.90;99.90;;;;;;5069807;28;19912;-64
2023/04/17 04:24:46;;;;;;;;;;;10.90;99.90;;;;;;5072726;28;19969;-64
2023/04/17 04:27:11;;;;;;;;;;;10.90;99.90;;;;;;5066157;28;19916;-65
2023/04/17 04:29:37;;;;;;;;;;;10.90;99.90;;;;;;5069819;28;19925;-64
2023/04/17 04:32:03;;;;;;;;;;;10.80;99.90;;;;;;5078914;28;19955;-64
2023/04/17 04:34:29;;;;;;;;;;;10.80;99.90;;;;;;5066126;28;19943;-64
2023/04/17 04:36:57;;;;;;;;;;;10.80;99.90;;;;;;5067510;28;19912;-64
2023/04/17 04:39:24;;;;;;;;;;;10.80;99.90;;;;;;5071323;28;19912;-63
2023/04/17 04:41:50;;;;;;;;;;;10.80;99.90;;;;;;5079450;28;20394;-64
2023/04/17 04:44:16;;;;;;;;;;;10.80;99.90;;;;;;5076360;28;19980;-64
2023/04/17 04:46:42;;;;;;;;;;;10.80;99.90;;;;;;5083449;28;20372;-64
2023/04/17 04:49:07;;;;;;;;;;;10.80;99.90;;;;;;5070821;28;19966;-63
2023/04/17 04:51:33;;;;;;;;;;;10.80;99.90;;;;;;5072782;28;19943;-64
2023/04/17 04:53:59;;;;;;;;;;;10.80;99.90;;;;;;5066495;28;19920;-64
2023/04/17 04:56:25;;;;;;;;;;;10.80;99.90;;;;;;5054409;28;19928;-63
2023/04/17 04:58:51;;;;;;;;;;;10.80;99.90;;;;;;5062923;28;19919;-64
2023/04/17 05:01:16;;;;;;;;;;;10.80;99.90;;;;;;5060276;28;19913;-65
2023/04/17 05:03:43;;;;;;;;;;;10.80;99.90;;;;;;5070414;28;20002;-65
2023/04/17 05:06:12;;;;;;;;;;;10.80;99.90;;;;;;5068887;28;19912;-65
2023/04/17 05:08:38;;;;;;;;;;;10.80;99.90;;;;;;5075862;28;19961;-64
2023/04/17 05:11:04;;;;;;;;;;;10.80;99.90;;;;;;5079263;28;19913;-64
2023/04/17 05:13:30;;;;;;;;;;;10.90;99.90;;;;;;5076446;28;19912;-64
2023/04/17 05:15:56;;;;;;;;;;;10.90;99.90;;;;;;5084199;28;20303;-65
2023/04/17 05:18:21;;;;;;;;;;;11.00;99.90;;;;;;5073324;28;20356;-64
2023/04/17 05:20:47;;;;;;;;;;;11.00;99.90;;;;;;5075649;28;19932;-64
2023/04/17 05:23:13;;;;;;;;;;;11.10;99.90;;;;;;5081131;28;20483;-65
2023/04/17 05:25:39;;;;;;;;;;;11.20;99.90;;;;;;5067564;28;19932;-64
2023/04/17 05:28:05;;;;;;;;;;;11.20;99.90;;;;;;5069789;28;19913;-64
2023/04/17 05:30:30;;;;;;;;;;;11.20;99.90;;;;;;5074041;28;19919;-64
2023/04/17 05:32:57;;;;;;;;;;;11.20;99.90;;;;;;5070898;28;20296;-64
2023/04/17 05:35:23;;;;;;;;;;;11.20;99.90;;;;;;5071818;28;19920;-64
2023/04/17 05:37:49;;;;;;;;;;;11.20;99.90;;;;;;5080914;28;20322;-64
2023/04/17 05:40:15;;;;;;;;;;;11.20;99.90;;;;;;5076640;28;19919;-65
2023/04/17 05:42:41;;;;;;;;;;;11.30;99.90;;;;;;5077679;28;19961;-64
2023/04/17 05:45:07;;;;;;;;;;;11.40;99.90;;;;;;5078374;28;19924;-64
2023/04/17 05:47:33;;;;;;;;;;;11.40;99.90;;;;;;5080605;28;19918;-64
2023/04/17 05:49:58;;;;;;;;;;;11.40;99.90;;;;;;5071588;28;19916;-64
2023/04/17 05:52:24;;;;;;;;;;;11.40;99.90;;;;;;5078766;28;19995;-64
2023/04/17 05:54:50;;;;;;;;;;;11.30;99.90;;;;;;5083614;28;20043;-64
2023/04/17 05:57:16;;;;;;;;;;;11.30;99.90;;;;;;5078075;28;19912;-63
2023/04/17 05:59:42;;;;;;;;;;;11.30;99.90;;;;;;5075563;28;20376;-64
2023/04/17 06:02:08;;;;;;;;;;;11.40;99.90;;;;;;5076175;28;20268;-64
2023/04/17 06:04:33;;;;;;;;;;;11.40;99.90;;;;;;5076557;28;19913;-63
2023/04/17 06:07:01;;;;;;;;;;;11.50;99.90;;;;;;5070085;28;19920;-64
2023/04/17 06:09:27;;;;;;;;;;;11.50;99.90;;;;;;5076355;28;19966;-65
2023/04/17 06:11:56;;;;;;;;;;;11.60;99.90;;;;;;5071467;28;19916;-65
2023/04/17 06:14:21;;;;;;;;;;;11.60;99.90;;;;;;5067697;28;19946;-65
2023/04/17 06:16:47;;;;;;;;;;;11.60;99.90;;;;;;5072909;28;19999;-65
2023/04/17 06:19:13;;;;;;;;;;;11.60;99.90;;;;;;5069341;28;19919;-64
2023/04/17 06:21:39;;;;;;;;;;;11.60;99.90;;;;;;5074714;28;19912;-64
2023/04/17 06:24:05;;;;;;;;;;;11.60;99.90;;;;;;5063384;28;20045;-64
2023/04/17 06:26:31;;;;;;;;;;;11.60;99.90;;;;;;5075288;28;19912;-64
2023/04/17 06:28:57;;;;;;;;;;;11.60;99.90;;;;;;5064934;28;20007;-64
2023/04/17 06:31:22;;;;;;;;;;;11.70;99.90;;;;;;5068404;28;20387;-64
2023/04/17 06:33:49;;;;;;;;;;;11.80;99.90;;;;;;5075602;28;19912;-64
2023/04/17 06:36:15;;;;;;;;;;;11.90;99.90;;;;;;5081059;28;19977;-65
2023/04/17 06:38:41;;;;;;;;;;;11.90;99.90;;;;;;5070359;28;19912;-63
2023/04/17 06:41:07;;;;;;;;;;;12.00;99.90;;;;;;5065576;28;19912;-65
2023/04/17 06:43:33;;;;;;;;;;;12.10;99.90;;;;;;5071087;28;19921;-64
2023/04/17 06:45:58;;;;;;;;;;;12.30;99.90;;;;;;5062883;28;20438;-65
2023/04/17 06:48:24;;;;;;;;;;;12.40;99.90;;;;;;5066528;28;20369;-64
2023/04/17 06:50:49;;;;;;;;;;;12.50;99.90;;;;;;5073503;28;19958;-63
2023/04/17 06:53:15;;;;;;;;;;;12.60;99.90;;;;;;5069732;28;19924;-63
2023/04/17 06:55:41;;;;;;;;;;;12.70;99.90;;;;;;5069113;28;19935;-65
2023/04/17 06:58:07;;;;;;;;;;;12.80;99.90;;;;;;5061683;28;20411;-64
2023/04/17 07:00:33;;;;;;;;;;;12.80;99.90;;;;;;5075439;28;19912;-63
2023/04/17 07:02:59;;;;;;;;;;;12.80;99.90;;;;;;5074141;28;19918;-63
2023/04/17 07:05:25;;;;;;;;;;;12.80;99.90;;;;;;5065580;28;19913;-65
2023/04/17 07:07:50;;;;;;;;;;;12.80;99.90;;;;;;5057881;28;19921;-64
2023/04/17 07:10:18;;;;;;;;;;;12.90;99.90;;;;;;5058553;28;19923;-64
2023/04/17 07:12:44;;;;;;;;;;;12.80;99.90;;;;;;5057485;28;19982;-64
2023/04/17 07:15:09;;;;;;;;;;;12.80;99.90;;;;;;5060724;28;19953;-65
2023/04/17 07:17:35;;;;;;;;;;;12.80;99.90;;;;;;5060462;28;19920;-64
2023/04/17 07:20:01;;;;;;;;;;;12.80;99.90;;;;;;5061960;28;19923;-65
2023/04/17 07:22:27;;;;;;;;;;;12.80;99.90;;;;;;5059839;28;19927;-64
2023/04/17 07:24:53;;;;;;;;;;;12.90;99.90;;;;;;5060497;28;20326;-65
2023/04/17 07:27:19;;;;;;;;;;;12.90;99.90;;;;;;5058530;28;20271;-66
2023/04/17 07:29:46;;;;;;;;;;;12.80;99.90;;;;;;5066329;28;19912;-64
2023/04/17 07:32:12;;;;;;;;;;;12.70;99.90;;;;;;5060343;28;19919;-64
2023/04/17 07:34:40;;;;;;;;;;;12.70;99.90;;;;;;5061412;28;19924;-66
2023/04/17 07:37:05;;;;;;;;;;;12.70;99.90;;;;;;5057840;28;20475;-66
2023/04/17 07:39:31;;;;;;;;;;;12.90;99.90;;;;;;5058458;28;20415;-65
2023/04/17 07:41:57;;;;;;;;;;;12.90;99.90;;;;;;5054706;28;19913;-68
2023/04/17 07:44:22;;;;;;;;;;;12.80;99.90;;;;;;5065977;28;20299;-65
2023/04/17 07:46:48;;;;;;;;;;;12.80;99.90;;;;;;5058595;28;19923;-65
2023/04/17 07:49:14;;;;;;;;;;;12.60;99.90;;;;;;5059876;28;20541;-65
2023/04/17 07:51:40;;;;;;;;;;;12.40;99.90;;;;;;5056250;28;19913;-65
2023/04/17 07:54:05;;;;;;;;;;;12.30;99.90;;;;;;5065778;28;20036;-65
2023/04/17 07:56:33;;;;;;;;;;;12.30;99.90;;;;;;5061364;28;19929;-64
2023/04/17 07:58:59;;;;;;;;;;;12.40;99.90;;;;;;5055109;28;19978;-64
2023/04/17 08:01:25;;;;;;;;;;;12.50;99.90;;;;;;5055676;28;20360;-64
2023/04/17 08:03:51;;;;;;;;;;;12.70;99.90;;;;;;5057470;28;20570;-64
2023/04/17 08:06:17;;;;;;;;;;;12.80;99.90;;;;;;5055446;28;19920;-65
2023/04/17 08:08:46;;;;;;;;;;;12.80;99.90;;;;;;5054864;28;19971;-64
2023/04/17 08:11:15;;;;;;;;;;;12.60;99.90;;;;;;5057114;28;19912;-64
2023/04/17 08:13:40;;;;;;;;;;;12.50;99.90;;;;;;5053870;28;19913;-65
2023/04/17 08:16:07;;;;;;;;;;;12.50;99.90;;;;;;5059985;28;19920;-65
2023/04/17 08:18:32;;;;;;;;;;;12.50;99.90;;;;;;5062538;28;19920;-63
2023/04/17 08:20:58;;;;;;;;;;;12.40;99.90;;;;;;5056981;28;19939;-64
2023/04/17 08:23:24;;;;;;;;;;;12.40;99.90;;;;;;5060172;28;19920;-64
2023/04/17 08:25:50;;;;;;;;;;;12.30;99.90;;;;;;5057941;28;20384;-63
2023/04/17 08:28:15;;;;;;;;;;;12.20;99.90;;;;;;5055681;28;20044;-63
2023/04/17 08:30:41;;;;;;;;;;;12.30;99.90;;;;;;5055724;28;19935;-63
2023/04/17 08:33:07;;;;;;;;;;;12.30;99.90;;;;;;5058219;28;20386;-64
2023/04/17 08:35:32;;;;;;;;;;;12.30;99.90;;;;;;5061315;28;20011;-64
2023/04/17 08:37:58;;;;;;;;;;;12.30;99.90;;;;;;5060514;28;19927;-64
2023/04/17 08:40:25;;;;;;;;;;;12.40;99.90;;;;;;5058489;28;19939;-63
2023/04/17 08:42:51;;;;;;;;;;;12.50;99.90;;;;;;5065158;28;19913;-67
2023/04/17 08:45:18;;;;;;;;;;;12.50;99.90;;;;;;5054319;28;20005;-63
2023/04/17 08:47:44;;;;;;;;;;;12.50;99.90;;;;;;5062850;28;19917;-64
2023/04/17 08:50:11;;;;;;;;;;;12.60;99.90;;;;;;5057744;28;19917;-62
2023/04/17 08:52:41;;;;;;;;;;;12.90;99.90;;;;;;5055094;28;20010;-63
2023/04/17 08:55:08;;;;;;;;;;;13.00;99.90;;;;;;5059744;28;20392;-63
2023/04/17 08:57:33;;;;;;;;;;;12.90;99.90;;;;;;5062465;28;19913;-61
2023/04/17 09:00:03;;;;;;;;;;;13.00;99.90;;;;;;5051917;28;20276;-63
2023/04/17 09:02:29;;;;;;;;;;;13.10;99.90;;;;;;5056816;28;19912;-62
2023/04/17 09:04:54;;;;;;;;;;;13.10;99.90;;;;;;5063028;28;19912;-63
2023/04/17 09:07:27;;;;;;;;;;;13.20;99.90;;;;;;5065315;28;19912;-62
2023/04/17 09:09:54;;;;;;;;;;;13.40;99.90;;;;;;5062768;28;19916;-63
2023/04/17 09:12:21;;;;;;;;;;;13.50;99.90;;;;;;5060146;28;20022;-62
2023/04/17 09:14:47;;;;;;;;;;;13.60;99.90;;;;;;5061607;28;20009;-61
2023/04/17 09:17:16;;;;;;;;;;;13.70;99.90;;;;;;5068233;28;19963;-62
2023/04/17 09:20:00;;;;;;;;;;;13.80;99.90;;;;;;5063028;28;19999;-62
2023/04/17 09:22:26;;;;;;;;;;;13.80;99.90;;;;;;5062211;28;19919;-62
2023/04/17 09:24:51;;;;;;;;;;;13.90;99.90;;;;;;5067546;28;20311;-62
2023/04/17 09:27:21;;;;;;;;;;;14.00;99.90;;;;;;5064547;28;19959;-62
2023/04/17 09:30:03;;;;;;;;;;;14.00;99.90;;;;;;5059243;28;19921;-62
2023/04/17 09:32:29;;;;;;;;;;;14.00;99.90;;;;;;5063847;28;19912;-62
2023/04/17 09:34:56;;;;;;;;;;;14.10;99.90;;;;;;5062984;28;20465;-62
2023/04/17 09:37:22;;;;;;;;;;;14.10;99.90;;;;;;5061049;28;20084;-63
2023/04/17 09:39:58;;;;;;;;;;;14.10;99.90;;;;;;5062373;28;20018;-63
2023/04/17 09:42:24;;;;;;;;;;;14.10;99.90;;;;;;5058319;28;19913;-63
2023/04/17 09:44:50;;;;;;;;;;;14.20;99.90;;;;;;5063804;28;20591;-62
2023/04/17 09:47:18;;;;;;;;;;;14.30;99.90;;;;;;5057050;28;19912;-63
2023/04/17 09:49:48;;;;;;;;;;;14.40;99.90;;;;;;5082011;28;20289;-63
2023/04/17 09:52:15;;;;;;;;;;;14.40;99.90;;;;;;5060344;28;19920;-62
2023/04/17 09:54:42;;;;;;;;;;;14.50;99.90;;;;;;5069308;28;19980;-63
2023/04/17 09:57:08;;;;;;;;;;;14.60;99.90;;;;;;5057886;28;20317;-63
2023/04/17 09:59:38;;;;;;;;;;;14.50;99.90;;;;;;5060638;28;19920;-63
2023/04/17 10:02:06;;;;;;;;;;;14.60;99.90;;;;;;5059354;28;20003;-61
2023/04/17 10:04:32;;;;;;;;;;;14.50;99.90;;;;;;5062871;28;19913;-62
2023/04/17 10:06:57;;;;;;;;;;;14.40;99.90;;;;;;5066052;28;20280;-62
2023/04/17 10:09:23;;;;;;;;;;;14.50;99.90;;;;;;5068466;28;19912;-63
2023/04/17 10:11:49;;;;;;;;;;;14.60;99.90;;;;;;5065270;28;19977;-63
2023/04/17 10:14:21;;;;;;;;;;;14.70;99.90;;;;;;5067076;28;20380;-62
2023/04/17 10:16:47;;;;;;;;;;;14.80;99.90;;;;;;5074220;28;19977;-61
2023/04/17 10:19:22;;;;;;;;;;;15.00;99.90;;;;;;5075947;28;19912;-62
2023/04/17 10:22:08;;;;;;;;;;;15.10;99.90;;;;;;5070099;28;19946;-61
2023/04/17 10:24:34;;;;;;;;;;;15.00;99.90;;;;;;5059858;28;19916;-61
2023/04/17 10:27:00;;;;;;;;;;;15.20;99.90;;;;;;5065975;28;19920;-61
2023/04/17 10:29:44;;;;;;;;;;;15.30;99.90;;;;;;5063221;28;19960;-62
2023/04/17 10:32:09;;;;;;;;;;;15.50;99.90;;;;;;5055858;28;19912;-62
2023/04/17 10:34:36;;;;;;;;;;;15.60;99.90;;;;;;5064816;28;20377;-62
2023/04/17 10:37:02;;;;;;;;;;;15.70;99.90;;;;;;5061783;28;19959;-61
2023/04/17 10:39:47;;;;;;;;;;;15.80;99.90;;;;;;5059186;28;19963;-62
2023/04/17 10:42:16;;;;;;;;;;;15.90;99.90;;;;;;5058042;28;19913;-62
2023/04/17 10:44:43;;;;;;;;;;;15.90;99.90;;;;;;5065238;28;19998;-61
2023/04/17 10:47:09;;;;;;;;;;;16.10;99.90;;;;;;5060123;28;19913;-62
2023/04/17 10:49:54;;;;;;;;;;;16.30;99.90;;;;;;5061140;28;19924;-61
2023/04/17 10:52:33;;;;;;;;;;;16.50;99.90;;;;;;5058689;28;19977;-62
2023/04/17 10:55:03;;;;;;;;;;;16.60;99.90;;;;;;5061708;28;20384;-62
2023/04/17 10:57:58;;;;;;;;;;;16.70;99.90;;;;;;5060447;28;19936;-62
2023/04/17 11:00:31;;;;;;;;;;;16.70;99.90;;;;;;5054801;28;19920;-62
2023/04/17 11:02:57;;;;;;;;;;;17.00;99.90;;;;;;5070267;28;19996;-61
2023/04/17 11:05:25;;;;;;;;;;;17.20;99.90;;;;;;5071655;28;20010;-63
2023/04/17 11:07:51;;;;;;;;;;;17.50;99.90;;;;;;5057838;28;19917;-62
2023/04/17 11:10:17;;;;;;;;;;;17.70;99.90;;;;;;5063255;28;19965;-63
2023/04/17 11:12:46;;;;;;;;;;;18.00;99.90;;;;;;5076542;28;19920;-62
2023/04/17 11:15:12;;;;;;;;;;;18.30;99.90;;;;;;5071162;28;19920;-63
2023/04/17 11:17:40;;;;;;;;;;;18.90;99.90;;;;;;5070192;28;20074;-62
2023/04/17 11:20:06;;;;;;;;;;;19.10;99.90;;;;;;5069058;28;20368;-62
2023/04/17 11:22:32;;;;;;;;;;;19.10;99.90;;;;;;5066721;28;19912;-62
2023/04/17 11:24:58;;;;;;;;;;;18.60;99.90;;;;;;5059144;28;20032;-63
2023/04/17 11:27:24;;;;;;;;;;;18.70;99.90;;;;;;5061893;28;20456;-62
2023/04/17 11:29:49;;;;;;;;;;;18.80;99.90;;;;;;5064930;28;20399;-63
2023/04/17 11:32:15;;;;;;;;;;;19.00;99.90;;;;;;5063754;28;19950;-62
2023/04/17 11:34:40;;;;;;;;;;;19.40;99.90;;;;;;5078277;28;19912;-62
2023/04/17 11:37:06;;;;;;;;;;;19.40;99.90;;;;;;5072593;28;20003;-63
2023/04/17 11:39:32;;;;;;;;;;;19.70;99.90;;;;;;5063299;28;19917;-61
2023/04/17 11:41:59;;;;;;;;;;;19.90;99.90;;;;;;5062005;28;19919;-63
2023/04/17 11:44:28;;;;;;;;;;;20.20;99.90;;;;;;5060664;28;19920;-64
2023/04/17 11:46:55;;;;;;;;;;;20.40;99.90;;;;;;5064307;28;19920;-63
2023/04/17 11:49:31;;;;;;;;;;;20.70;99.90;;;;;;5060885;28;19913;-63
2023/04/17 11:52:01;;;;;;;;;;;21.10;99.90;;;;;;5065611;28;20352;-64
2023/04/17 11:54:27;;;;;;;;;;;20.50;99.90;;;;;;5055649;28;20565;-64
2023/04/17 11:57:09;;;;;;;;;;;20.40;99.90;;;;;;5059483;28;20042;-64
2023/04/17 11:59:36;;;;;;;;;;;20.10;99.90;;;;;;5058526;28;20367;-65
2023/04/17 12:02:02;;;;;;;;;;;20.20;99.90;;;;;;5062108;28;20376;-63
2023/04/17 12:04:29;;;;;;;;;;;20.40;99.90;;;;;;5061100;28;19916;-62
2023/04/17 12:06:55;;;;;;;;;;;20.80;99.90;;;;;;5061448;28;20563;-64
2023/04/17 12:09:23;;;;;;;;;;;21.00;99.90;;;;;;5063902;28;19948;-62
2023/04/17 12:11:48;;;;;;;;;;;21.00;99.90;;;;;;5075835;28;20364;-63
2023/04/17 12:14:14;;;;;;;;;;;21.70;99.90;;;;;;5060233;28;19912;-63
2023/04/17 12:16:39;;;;;;;;;;;22.40;99.90;;;;;;5066928;28;19951;-64
2023/04/17 12:19:06;;;;;;;;;;;22.50;99.90;;;;;;5068880;28;19921;-63
2023/04/17 12:21:32;;;;;;;;;;;22.20;99.90;;;;;;5073295;28;20007;-63
2023/04/17 12:23:57;;;;;;;;;;;22.20;99.90;;;;;;5068069;28;19943;-63
2023/04/17 12:26:24;;;;;;;;;;;22.10;99.90;;;;;;5064956;28;19920;-62
2023/04/17 12:28:50;;;;;;;;;;;22.20;99.90;;;;;;5067500;28;19986;-63
2023/04/17 12:31:16;;;;;;;;;;;22.40;99.90;;;;;;5060947;28;20386;-63
2023/04/17 12:33:41;;;;;;;;;;;22.50;97.70;;;;;;5065433;28;19960;-63
2023/04/17 12:36:07;;;;;;;;;;;22.10;97.80;;;;;;5069762;28;19920;-62
2023/04/17 12:38:33;;;;;;;;;;;21.20;99.90;;;;;;5070438;28;19912;-63
2023/04/17 12:40:59;;;;;;;;;;;20.90;99.90;;;;;;5064718;28;20007;-62
2023/04/17 12:43:25;;;;;;;;;;;21.00;99.90;;;;;;5066802;28;19930;-62
2023/04/17 12:45:53;;;;;;;;;;;21.40;99.90;;;;;;5069254;28;19919;-62
2023/04/17 12:48:19;;;;;;;;;;;21.50;99.90;;;;;;5073138;28;19965;-62
2023/04/17 12:50:44;;;;;;;;;;;21.90;99.90;;;;;;5063536;28;20003;-62
2023/04/17 12:53:11;;;;;;;;;;;21.60;99.90;;;;;;5070006;28;21141;-63
2023/04/17 12:55:38;;;;;;;;;;;21.30;99.90;;;;;;5071159;28;19920;-63
2023/04/17 12:58:05;;;;;;;;;;;21.30;99.90;;;;;;5068069;28;19938;-63
2023/04/17 13:00:31;;;;;;;;;;;21.80;99.90;;;;;;5069159;28;19920;-62
2023/04/17 13:02:57;;;;;;;;;;;22.50;99.90;;;;;;5066814;28;19912;-63
2023/04/17 13:05:23;;;;;;;;;;;22.10;99.90;;;;;;5067434;28;19935;-63
2023/04/17 13:07:48;;;;;;;;;;;22.20;99.90;;;;;;5067464;28;19916;-63
2023/04/17 13:10:14;;;;;;;;;;;23.00;96.20;;;;;;5068523;28;19912;-63
2023/04/17 13:12:43;;;;;;;;;;;22.70;82.10;;;;;;5070816;28;19920;-63
2023/04/17 13:15:08;;;;;;;;;;;23.20;76.50;;;;;;5067998;28;19966;-63
2023/04/17 13:17:34;;;;;;;;;;;23.10;72.30;;;;;;5060427;28;19913;-62
2023/04/17 13:20:00;;;;;;;;;;;23.40;69.10;;;;;;5058449;28;19917;-63
2023/04/17 13:22:26;;;;;;;;;;;24.20;64.10;;;;;;5062401;28;20065;-63
2023/04/17 13:24:51;;;;;;;;;;;24.40;62.50;;;;;;5059526;28;20322;-63
2023/04/17 13:27:17;;;;;;;;;;;24.20;59.70;;;;;;5059541;28;20004;-63
2023/04/17 13:29:43;;;;;;;;;;;24.20;60.00;;;;;;5056853;28;20051;-66
2023/04/17 13:32:09;;;;;;;;;;;24.30;56.90;;;;;;5061272;28;20007;-63
2023/04/17 13:34:34;;;;;;;;;;;24.40;58.70;;;;;;5058549;28;20008;-63
2023/04/17 13:37:00;;;;;;;;;;;24.70;56.10;;;;;;5063543;28;19917;-64
2023/04/17 13:39:26;;;;;;;;;;;24.30;69.40;;;;;;5071213;28;19917;-63
2023/04/17 13:41:52;;;;;;;;;;;23.70;69.10;;;;;;5070453;28;20332;-65
2023/04/17 13:44:17;;;;;;;;;;;23.40;73.30;;;;;;5061181;28;19920;-63
2023/04/17 13:46:43;;;;;;;;;;;23.20;63.90;;;;;;5064153;28;20400;-64
2023/04/17 13:49:11;;;;;;;;;;;23.20;80.30;;;;;;5062355;28;19962;-62
2023/04/17 13:51:37;;;;;;;;;;;23.70;82.70;;;;;;5063526;28;19917;-64
2023/04/17 13:54:02;;;;;;;;;;;23.70;73.60;;;;;;5066528;28;20011;-63
2023/04/17 13:56:28;;;;;;;;;;;23.90;73.00;;;;;;5060023;28;20004;-64
2023/04/17 13:58:54;;;;;;;;;;;24.00;78.80;;;;;;5064566;28;20422;-64
2023/04/17 14:01:20;;;;;;;;;;;24.00;81.20;;;;;;5068810;28;19920;-64
2023/04/17 14:03:46;;;;;;;;;;;24.00;74.30;;;;;;5069465;28;20369;-62
2023/04/17 14:06:12;;;;;;;;;;;24.10;73.80;;;;;;5064916;28;19970;-64
2023/04/17 14:08:37;;;;;;;;;;;23.70;73.20;;;;;;5073616;28;20284;-63
2023/04/17 14:11:03;;;;;;;;;;;23.40;81.00;;;;;;5071037;28;19912;-63
2023/04/17 14:13:29;;;;;;;;;;;23.50;84.60;;;;;;5069499;28;19921;-62